createdAt,value
2022-10-02T00:01:32.712Z,99795.19
2022-10-02T00:04:02.054Z,99798.13
2022-10-02T00:06:37.942Z,99799.66
2022-10-02T00:09:07.952Z,99801.02
2022-10-02T00:11:43.435Z,99799.29
2022-10-02T00:14:18.591Z,99801.85
2022-10-02T00:16:48.372Z,99800.16
2022-10-02T00:19:18.666Z,99800.74
2022-10-02T00:22:05.753Z,99805.70
2022-10-02T00:24:39.180Z,99806.52
2022-10-02T00:27:15.719Z,99810.00
2022-10-02T00:29:49.971Z,99809.92
2022-10-02T00:32:25.566Z,99808.05
2022-10-02T00:35:16.571Z,99809.33
2022-10-02T00:37:51.002Z,99812.55
2022-10-02T00:40:36.560Z,99812.05
2022-10-02T00:43:11.620Z,99812.91
2022-10-02T00:46:05.936Z,99819.86
2022-10-02T00:48:51.092Z,99814.70
2022-10-02T00:51:32.090Z,99816.97
2022-10-02T00:54:09.140Z,99821.07
2022-10-02T00:56:43.579Z,99819.05
2022-10-02T00:59:33.582Z,99815.45
2022-10-02T01:02:05.963Z,99824.13
2022-10-02T01:04:36.603Z,99823.09
2022-10-02T01:07:06.574Z,99823.92
2022-10-02T01:09:37.472Z,99823.68
2022-10-02T01:12:06.294Z,99826.83
2022-10-02T01:14:35.545Z,99824.17
2022-10-02T01:17:04.772Z,99826.98
2022-10-02T01:19:37.611Z,99830.21
2022-10-02T01:22:11.473Z,99829.59
2022-10-02T01:24:44.375Z,99829.67
2022-10-02T01:27:12.549Z,99829.86
2022-10-02T01:29:41.293Z,99832.27
2022-10-02T01:32:10.831Z,99832.19
2022-10-02T01:34:39.433Z,99833.03
2022-10-02T01:37:07.733Z,99836.04
2022-10-02T01:39:35.841Z,99838.65
2022-10-02T01:42:04.668Z,99835.92
2022-10-02T01:44:33.210Z,99836.66
2022-10-02T01:47:08.603Z,99840.55
2022-10-02T01:49:50.750Z,99840.36
2022-10-02T01:52:34.484Z,99845.25
2022-10-02T01:55:25.024Z,99851.73
2022-10-02T01:58:03.972Z,99854.88
2022-10-02T02:00:43.452Z,99851.77
2022-10-02T02:03:18.119Z,99857.39
2022-10-02T02:05:50.231Z,99858.17
2022-10-02T02:08:26.119Z,99861.31
2022-10-02T02:11:04.672Z,99864.52
2022-10-02T02:13:35.972Z,99867.84
2022-10-02T02:16:08.542Z,99869.38
2022-10-02T02:18:42.983Z,99870.54
2022-10-02T02:21:14.118Z,99874.07
2022-10-02T02:23:43.928Z,99879.58
2022-10-02T02:26:13.186Z,99878.75
2022-10-02T02:28:44.815Z,99879.41
2022-10-02T02:31:16.018Z,99879.21
2022-10-02T02:33:47.950Z,99882.19
2022-10-02T02:36:18.749Z,99883.67
2022-10-02T02:38:50.757Z,99887.64
2022-10-02T02:41:24.076Z,99888.52
2022-10-02T02:43:57.928Z,99887.87
2022-10-02T02:46:58.696Z,99886.13
2022-10-02T02:49:29.822Z,99884.80
2022-10-02T02:52:01.030Z,99886.92
2022-10-02T02:54:33.508Z,99893.20
2022-10-02T02:57:05.001Z,99892.58
2022-10-02T02:59:35.704Z,99890.18
2022-10-02T03:02:04.750Z,99886.21
2022-10-02T03:04:34.052Z,99889.41
2022-10-02T03:07:04.620Z,99888.73
2022-10-02T03:09:33.675Z,99887.28
2022-10-02T03:12:12.859Z,99886.00
2022-10-02T03:15:27.277Z,99882.48
2022-10-02T03:18:16.533Z,99882.41
2022-10-02T03:20:49.727Z,99883.89
2022-10-02T03:23:25.459Z,99893.16
2022-10-02T03:25:59.937Z,99897.04
2022-10-02T03:28:54.296Z,99896.74
2022-10-02T03:31:21.529Z,99896.42
2022-10-02T03:33:50.822Z,99895.52
2022-10-02T03:36:20.242Z,99895.96
2022-10-02T03:39:00.810Z,99894.06
2022-10-02T03:41:37.566Z,99893.81
2022-10-02T03:44:06.288Z,99892.11
2022-10-02T03:46:34.936Z,99893.84
2022-10-02T03:49:03.688Z,99897.26
2022-10-02T03:51:32.050Z,99899.91
2022-10-02T03:54:00.801Z,99898.42
2022-10-02T03:56:36.810Z,99901.90
2022-10-02T03:59:12.375Z,99900.41
2022-10-02T04:01:48.923Z,99900.87
2022-10-02T04:04:23.001Z,99902.36
2022-10-02T04:06:54.206Z,99901.03
2022-10-02T04:09:27.011Z,99902.52
2022-10-02T04:11:58.735Z,99900.87
2022-10-02T04:14:33.039Z,99904.09
2022-10-02T04:17:07.031Z,99904.80
2022-10-02T04:19:35.962Z,99904.39
2022-10-02T04:22:11.747Z,99909.55
2022-10-02T04:24:46.540Z,99913.12
2022-10-02T04:27:18.663Z,99915.64
2022-10-02T04:29:51.493Z,99911.34
2022-10-02T04:32:25.672Z,99912.75
2022-10-02T04:34:54.570Z,99916.22
2022-10-02T04:37:36.526Z,99916.75
2022-10-02T04:40:17.481Z,99919.91
2022-10-02T04:42:55.892Z,99920.28
2022-10-02T04:45:35.563Z,99919.62
2022-10-02T04:48:27.903Z,99922.02
2022-10-02T04:51:06.551Z,99922.35
2022-10-02T04:53:59.209Z,99925.33
2022-10-02T04:56:44.673Z,99925.95
2022-10-02T04:59:26.233Z,99923.09
2022-10-02T05:02:06.985Z,99931.78
2022-10-02T05:04:53.935Z,99930.62
2022-10-02T05:07:36.327Z,99934.09
2022-10-02T05:10:32.039Z,99934.20
2022-10-02T05:13:08.688Z,99937.85
2022-10-02T05:15:46.890Z,99943.35
2022-10-02T05:18:29.201Z,99945.37
2022-10-02T05:21:10.783Z,99944.56
2022-10-02T05:23:52.878Z,99945.27
2022-10-02T05:26:42.369Z,99945.23
2022-10-02T05:29:20.500Z,99947.83
2022-10-02T05:31:59.019Z,99947.38
2022-10-02T05:34:39.969Z,99949.59
2022-10-02T05:37:28.041Z,99950.30
2022-10-02T05:40:01.893Z,99955.30
2022-10-02T05:42:35.104Z,99956.95
2022-10-02T05:45:11.940Z,99956.24
2022-10-02T05:47:44.830Z,99961.77
2022-10-02T05:50:17.680Z,99965.55
2022-10-02T05:52:53.994Z,99966.88
2022-10-02T05:55:27.063Z,99971.02
2022-10-02T05:58:01.054Z,99972.24
2022-10-02T06:00:35.859Z,99968.44
2022-10-02T06:03:13.324Z,99971.15
2022-10-02T06:05:49.768Z,99973.63
2022-10-02T06:08:23.196Z,99977.11
2022-10-02T06:10:55.590Z,99974.45
2022-10-02T06:13:27.364Z,99978.39
2022-10-02T06:16:00.645Z,99981.33
2022-10-02T06:18:32.964Z,99980.41
2022-10-02T06:21:05.360Z,99979.64
2022-10-02T06:23:37.404Z,99978.67
2022-10-02T06:26:11.263Z,99981.25
2022-10-02T06:28:41.856Z,99983.75
2022-10-02T06:31:16.313Z,99990.74
2022-10-02T06:33:45.711Z,99988.89
2022-10-02T06:36:55.277Z,99992.43
2022-10-02T06:39:35.094Z,99995.48
2022-10-02T06:42:12.778Z,99995.20
2022-10-02T06:44:48.352Z,99994.91
2022-10-02T06:47:26.008Z,99995.70
2022-10-02T06:50:10.116Z,99997.14
2022-10-02T06:52:46.007Z,100000.52
2022-10-02T06:55:32.855Z,99999.48
2022-10-02T06:58:30.355Z,100005.43
2022-10-02T07:01:05.581Z,100004.73
2022-10-02T07:03:49.523Z,100008.02
2022-10-02T07:06:26.019Z,100015.20
2022-10-02T07:09:12.485Z,100017.17
2022-10-02T07:11:47.442Z,100018.14
2022-10-02T07:14:29.722Z,100022.58
2022-10-02T07:17:06.875Z,100024.56
2022-10-02T07:19:49.963Z,100026.55
2022-10-02T07:22:44.963Z,100030.11
2022-10-02T07:25:32.449Z,100034.55
2022-10-02T07:28:10.138Z,100033.92
2022-10-02T07:30:45.319Z,100035.70
2022-10-02T07:33:20.678Z,100037.84
2022-10-02T07:35:55.842Z,100038.84
2022-10-02T07:38:47.505Z,100041.19
2022-10-02T07:41:40.497Z,100042.86
2022-10-02T07:44:19.168Z,100046.17
2022-10-02T07:46:54.441Z,100049.13
2022-10-02T07:49:36.127Z,100051.86
2022-10-02T07:52:16.687Z,100051.70
2022-10-02T07:55:00.833Z,100050.53
2022-10-02T07:57:34.839Z,100049.94
2022-10-02T08:00:06.404Z,100051.76
2022-10-02T08:02:39.365Z,100051.55
2022-10-02T08:05:17.800Z,100055.73
2022-10-02T08:07:50.178Z,100056.39
2022-10-02T08:10:22.964Z,100056.77
2022-10-02T08:12:56.081Z,100060.14
2022-10-02T08:15:25.863Z,100059.23
2022-10-02T08:18:10.776Z,100059.64
2022-10-02T08:20:47.097Z,100060.38
2022-10-02T08:23:21.856Z,100061.17
2022-10-02T08:25:55.869Z,100064.04
2022-10-02T08:28:24.798Z,100066.55
2022-10-02T08:30:54.026Z,100070.96
2022-10-02T08:33:24.010Z,100064.86
2022-10-02T08:36:05.661Z,100064.36
2022-10-02T08:38:41.424Z,100073.78
2022-10-02T08:41:37.139Z,100067.31
2022-10-02T08:44:49.474Z,100071.66
2022-10-02T08:47:55.195Z,100067.30
2022-10-02T08:50:43.135Z,100070.20
2022-10-02T08:53:40.734Z,100073.18
2022-10-02T08:56:25.449Z,100070.98
2022-10-02T08:59:28.982Z,100071.83
2022-10-02T09:02:27.268Z,100072.73
2022-10-02T09:05:18.795Z,100068.08
2022-10-02T09:08:42.167Z,100071.13
2022-10-02T09:11:51.811Z,100072.23
2022-10-02T09:14:44.058Z,100068.45
2022-10-02T09:17:27.168Z,100071.39
2022-10-02T09:20:12.825Z,100064.75
2022-10-02T09:23:20.569Z,100064.29
2022-10-02T09:25:56.828Z,100064.50
2022-10-02T09:29:09.240Z,100062.08
2022-10-02T09:32:15.993Z,100065.14
2022-10-02T09:35:07.643Z,100063.34
2022-10-02T09:38:13.667Z,100063.41
2022-10-02T09:41:16.165Z,100062.75
2022-10-02T09:44:05.865Z,100066.17
2022-10-02T09:46:57.714Z,100067.48
2022-10-02T09:49:55.791Z,100062.31
2022-10-02T09:53:07.327Z,100059.45
2022-10-02T09:56:20.348Z,100052.55
2022-10-02T09:59:17.014Z,100052.14
2022-10-02T10:02:07.252Z,100043.58
2022-10-02T10:05:05.948Z,100043.95
2022-10-02T10:08:07.474Z,100042.04
2022-10-02T10:11:00.649Z,100037.00
2022-10-02T10:14:17.749Z,100034.20
2022-10-02T10:17:21.996Z,100036.09
2022-10-02T10:20:11.962Z,100032.35
2022-10-02T10:23:03.031Z,100028.11
2022-10-02T10:25:51.097Z,100019.37
2022-10-02T10:28:55.729Z,100022.86
2022-10-02T10:32:02.568Z,100016.52
2022-10-02T10:34:45.635Z,100017.23
2022-10-02T10:37:42.063Z,100020.01
2022-10-02T10:40:39.111Z,100020.92
2022-10-02T10:43:50.659Z,100021.42
2022-10-02T10:46:59.563Z,100023.70
2022-10-02T10:50:02.373Z,100017.44
2022-10-02T10:52:47.281Z,100016.86
2022-10-02T10:55:35.070Z,100011.89
2022-10-02T10:58:21.120Z,100012.77
2022-10-02T11:01:10.405Z,100008.24
2022-10-02T11:04:08.124Z,100014.80
2022-10-02T11:06:58.030Z,100011.99
2022-10-02T11:10:15.506Z,100029.31
2022-10-02T11:13:01.936Z,100044.46
2022-10-02T11:16:06.080Z,100038.52
2022-10-02T11:19:00.221Z,100038.52
2022-10-02T11:22:11.153Z,100036.58
2022-10-02T11:25:07.382Z,100036.34
2022-10-02T11:28:06.146Z,100031.91
2022-10-02T11:30:42.987Z,100031.88
2022-10-02T11:33:34.648Z,100031.80
2022-10-02T11:36:42.829Z,100028.60
2022-10-02T11:39:24.070Z,100030.93
2022-10-02T11:42:12.364Z,100031.66
2022-10-02T11:44:58.247Z,100029.02
2022-10-02T11:48:08.887Z,100028.48
2022-10-02T11:51:10.757Z,100025.04
2022-10-02T11:54:03.816Z,100024.88
2022-10-02T11:57:00.708Z,100025.41
2022-10-02T11:59:40.814Z,100027.59
2022-10-02T12:02:16.621Z,100022.93
2022-10-02T12:04:54.819Z,100017.92
2022-10-02T12:07:32.104Z,100014.84
2022-10-02T12:10:32.693Z,100011.39
2022-10-02T12:13:25.443Z,100014.63
2022-10-02T12:16:02.700Z,100019.72
2022-10-02T12:18:41.908Z,100020.96
2022-10-02T12:21:39.586Z,100017.46
2022-10-02T12:24:36.974Z,100032.34
2022-10-02T12:27:13.683Z,100025.73
2022-10-02T12:30:00.641Z,100028.08
2022-10-02T12:32:52.003Z,100029.98
2022-10-02T12:35:46.550Z,100025.98
2022-10-02T12:38:33.752Z,100022.42
2022-10-02T12:41:15.359Z,100017.48
2022-10-02T12:44:21.703Z,100017.77
2022-10-02T12:47:25.993Z,100012.54
2022-10-02T12:50:07.202Z,100004.23
2022-10-02T12:53:03.819Z,100005.68
2022-10-02T12:56:02.375Z,100004.34
2022-10-02T12:58:42.588Z,100003.86
2022-10-02T13:01:34.814Z,100004.24
2022-10-02T13:04:40.915Z,100002.64
2022-10-02T13:07:40.831Z,100000.11
2022-10-02T13:10:22.522Z,100000.23
2022-10-02T13:13:06.718Z,100000.29
2022-10-02T13:15:43.617Z,99997.98
2022-10-02T13:18:46.042Z,99998.04
2022-10-02T13:21:25.005Z,99995.66
2022-10-02T13:24:13.181Z,99993.27
2022-10-02T13:26:53.174Z,99991.27
2022-10-02T13:29:35.148Z,99993.42
2022-10-02T13:32:15.987Z,99991.49
2022-10-02T13:34:57.535Z,99992.80
2022-10-02T13:37:36.351Z,99989.53
2022-10-02T13:40:28.943Z,99993.95
2022-10-02T13:43:26.158Z,99992.88
2022-10-02T13:46:06.182Z,99991.70
2022-10-02T13:48:55.496Z,99991.36
2022-10-02T13:51:32.185Z,99992.83
2022-10-02T13:54:13.679Z,99989.42
2022-10-02T13:57:02.451Z,99980.13
2022-10-02T13:59:48.237Z,99990.34
2022-10-02T14:02:27.618Z,99991.44
2022-10-02T14:05:01.619Z,99991.41
2022-10-02T14:07:55.903Z,99990.78
2022-10-02T14:11:22.411Z,99991.89
2022-10-02T14:14:09.057Z,99982.16
2022-10-02T14:16:52.224Z,99985.23
2022-10-02T14:19:34.961Z,99979.90
2022-10-02T14:22:15.532Z,99976.69
2022-10-02T14:25:04.134Z,99977.66
2022-10-02T14:28:19.989Z,99975.07
2022-10-02T14:31:10.314Z,99971.44
2022-10-02T14:33:55.907Z,99972.80
2022-10-02T14:36:32.115Z,99972.09
2022-10-02T14:39:08.686Z,99971.18
2022-10-02T14:41:58.333Z,99970.32
2022-10-02T14:44:56.469Z,99967.11
2022-10-02T14:47:42.617Z,99966.95
2022-10-02T14:50:41.399Z,99968.50
2022-10-02T14:54:00.229Z,99968.67
2022-10-02T14:56:52.332Z,99964.15
2022-10-02T14:59:37.155Z,99961.98
2022-10-02T15:02:20.677Z,99967.45
2022-10-02T15:04:53.597Z,99964.73
2022-10-02T15:07:23.547Z,99962.35
2022-10-02T15:10:07.033Z,99960.46
2022-10-02T15:12:46.898Z,99961.86
2022-10-02T15:15:18.894Z,99963.29
2022-10-02T15:17:59.626Z,99961.96
2022-10-02T15:20:37.291Z,99958.02
2022-10-02T15:23:12.289Z,99959.34
2022-10-02T15:26:02.629Z,99959.42
2022-10-02T15:28:42.631Z,99960.63
2022-10-02T15:31:19.786Z,99961.88
2022-10-02T15:33:57.602Z,99962.98
2022-10-02T15:36:44.505Z,99962.48
2022-10-02T15:39:59.261Z,99964.44
2022-10-02T15:42:48.031Z,99974.66
2022-10-02T15:45:38.998Z,99976.40
2022-10-02T15:49:01.474Z,99977.79
2022-10-02T15:51:55.158Z,99978.63
2022-10-02T15:54:35.346Z,99979.19
2022-10-02T15:57:24.013Z,99975.81
2022-10-02T16:00:08.395Z,99973.84
2022-10-02T16:02:49.116Z,99975.30
2022-10-02T16:05:24.334Z,99976.75
2022-10-02T16:08:05.090Z,99979.77
2022-10-02T16:10:40.944Z,99980.70
2022-10-02T16:13:31.411Z,99981.06
2022-10-02T16:16:06.275Z,99983.48
2022-10-02T16:18:50.931Z,99984.14
2022-10-02T16:21:33.390Z,99988.48
2022-10-02T16:24:23.493Z,99986.64
2022-10-02T16:27:13.275Z,99988.10
2022-10-02T16:29:48.630Z,99987.41
2022-10-02T16:32:25.000Z,99984.61
2022-10-02T16:35:16.921Z,99984.16
2022-10-02T16:37:49.136Z,99984.75
2022-10-02T16:40:26.315Z,99982.44
2022-10-02T16:43:23.242Z,99982.16
2022-10-02T16:46:02.126Z,99977.96
2022-10-02T16:48:41.898Z,99979.25
2022-10-02T16:51:15.610Z,99979.77
2022-10-02T16:53:50.257Z,99978.73
2022-10-02T16:56:23.713Z,99975.54
2022-10-02T16:59:01.397Z,99972.80
2022-10-02T17:01:43.370Z,99977.83
2022-10-02T17:04:39.953Z,99978.83
2022-10-02T17:07:26.716Z,99976.27
2022-10-02T17:10:01.805Z,99974.41
2022-10-02T17:12:43.243Z,99975.77
2022-10-02T17:15:26.234Z,99975.29
2022-10-02T17:18:08.155Z,99975.67
2022-10-02T17:20:51.786Z,99972.86
2022-10-02T17:23:35.600Z,99975.91
2022-10-02T17:26:27.772Z,99976.09
2022-10-02T17:29:11.284Z,99978.30
2022-10-02T17:31:52.484Z,99980.48
2022-10-02T17:34:26.172Z,99982.45
2022-10-02T17:37:49.928Z,99983.43
2022-10-02T17:40:22.645Z,99982.36
2022-10-02T17:42:57.330Z,99986.80
2022-10-02T17:45:37.775Z,99987.19
2022-10-02T17:48:26.579Z,99985.73
2022-10-02T17:52:00.002Z,99984.92
2022-10-02T17:54:45.757Z,99977.85
2022-10-02T17:57:24.483Z,99976.86
2022-10-02T18:00:09.011Z,99975.11
2022-10-02T18:03:17.640Z,99974.24
2022-10-02T18:05:51.558Z,99967.53
2022-10-02T18:08:30.724Z,99970.27
2022-10-02T18:11:06.056Z,99966.20
2022-10-02T18:13:45.695Z,99967.55
2022-10-02T18:16:24.477Z,99965.72
2022-10-02T18:19:16.448Z,99963.40
2022-10-02T18:21:54.183Z,99965.93
2022-10-02T18:24:48.948Z,99964.55
2022-10-02T18:27:28.063Z,99967.05
2022-10-02T18:30:08.238Z,99964.93
2022-10-02T18:32:59.943Z,99966.45
2022-10-02T18:35:32.846Z,99965.97
2022-10-02T18:38:13.096Z,99964.21
2022-10-02T18:40:56.265Z,99965.76
2022-10-02T18:43:47.043Z,99967.34
2022-10-02T18:46:25.347Z,99965.70
2022-10-02T18:49:07.354Z,99967.31
2022-10-02T18:51:57.951Z,99969.55
2022-10-02T18:54:32.199Z,99968.69
2022-10-02T18:57:12.380Z,99965.71
2022-10-02T18:59:52.535Z,99967.34
2022-10-02T19:02:31.586Z,99966.39
2022-10-02T19:05:16.581Z,99965.82
2022-10-02T19:07:49.677Z,99962.46
2022-10-02T19:10:25.727Z,99961.71
2022-10-02T19:12:57.600Z,99959.27
2022-10-02T19:15:28.672Z,99954.14
2022-10-02T19:18:02.072Z,99955.05
2022-10-02T19:20:51.310Z,99955.95
2022-10-02T19:23:26.359Z,99949.68
2022-10-02T19:25:56.100Z,99944.42
2022-10-02T19:28:27.125Z,99945.66
2022-10-02T19:30:58.861Z,99946.48
2022-10-02T19:33:34.550Z,99950.35
2022-10-02T19:36:05.245Z,99960.99
2022-10-02T19:38:36.101Z,99961.28
2022-10-02T19:41:10.012Z,99957.39
2022-10-02T19:43:47.984Z,99962.20
2022-10-02T19:46:19.653Z,99958.79
2022-10-02T19:48:55.728Z,99963.06
2022-10-02T19:51:25.428Z,99956.77
2022-10-02T19:53:58.942Z,99956.73
2022-10-02T19:56:31.745Z,99956.68
2022-10-02T19:59:05.575Z,99956.19
2022-10-02T20:01:42.485Z,99952.08
2022-10-02T20:04:16.626Z,99953.90
2022-10-02T20:06:52.356Z,99953.31
2022-10-02T20:09:25.049Z,99954.42
2022-10-02T20:11:57.618Z,99955.52
2022-10-02T20:14:30.642Z,99957.98
2022-10-02T20:17:12.074Z,99964.22
2022-10-02T20:19:45.322Z,99958.33
2022-10-02T20:22:22.394Z,99955.40
2022-10-02T20:24:56.197Z,99955.21
2022-10-02T20:27:30.738Z,99945.01
2022-10-02T20:30:02.814Z,99941.98
2022-10-02T20:32:34.962Z,99949.45
2022-10-02T20:35:11.445Z,99952.41
2022-10-02T20:37:40.813Z,99954.06
2022-10-02T20:40:14.292Z,99953.62
2022-10-02T20:42:47.013Z,99954.13
2022-10-02T20:45:16.007Z,99947.14
2022-10-02T20:48:21.556Z,99951.39
2022-10-02T20:50:56.557Z,99951.33
2022-10-02T20:53:52.089Z,99951.70
2022-10-02T20:56:34.126Z,99952.19
2022-10-02T20:59:22.522Z,99955.83
2022-10-02T21:01:58.959Z,99960.30
2022-10-02T21:04:44.081Z,99958.25
2022-10-02T21:07:52.731Z,99953.42
2022-10-02T21:10:53.429Z,99951.77
2022-10-02T21:13:42.842Z,99954.67
2022-10-02T21:16:49.620Z,99952.41
2022-10-02T21:19:51.748Z,99953.95
2022-10-02T21:22:49.853Z,99950.52
2022-10-02T21:25:34.786Z,99946.88
2022-10-02T21:28:55.193Z,99947.21
2022-10-02T21:31:33.620Z,99943.03
2022-10-02T21:34:13.465Z,99940.67
2022-10-02T21:36:48.288Z,99943.11
2022-10-02T21:39:59.995Z,99944.85
2022-10-02T21:42:51.851Z,99945.43
2022-10-02T21:46:00.059Z,99940.60
2022-10-02T21:49:18.993Z,99939.21
2022-10-02T21:52:12.659Z,99941.46
2022-10-02T21:55:18.048Z,99942.38
2022-10-02T21:58:14.751Z,99945.70
2022-10-02T22:00:59.290Z,99950.73
2022-10-02T22:03:46.959Z,99950.55
2022-10-02T22:06:36.125Z,99947.64
2022-10-02T22:09:19.030Z,99945.95
2022-10-02T22:11:57.956Z,99946.09
2022-10-02T22:14:35.863Z,99945.34
2022-10-02T22:17:13.794Z,99946.80
2022-10-02T22:20:11.971Z,99943.84
2022-10-02T22:22:54.975Z,99941.49
2022-10-02T22:25:36.358Z,99941.25
2022-10-02T22:28:18.683Z,99940.41
2022-10-02T22:31:18.260Z,99943.64
2022-10-02T22:33:54.988Z,99941.39
2022-10-02T22:36:38.007Z,99933.98
2022-10-02T22:39:12.308Z,99934.08
2022-10-02T22:41:45.682Z,99938.89
2022-10-02T22:44:21.704Z,99941.41
2022-10-02T22:46:52.791Z,99944.44
2022-10-02T22:49:27.701Z,99941.20
2022-10-02T22:52:01.012Z,99945.80
2022-10-02T22:54:34.903Z,99944.88
2022-10-02T22:57:14.054Z,99953.73
2022-10-02T22:59:45.821Z,99948.65
2022-10-02T23:02:22.291Z,99954.27
2022-10-02T23:04:56.308Z,99948.52
2022-10-02T23:07:26.309Z,99945.59
2022-10-02T23:10:00.163Z,99940.63
2022-10-02T23:12:38.240Z,99942.84
2022-10-02T23:15:28.352Z,99945.67
2022-10-02T23:17:58.979Z,99947.44
2022-10-02T23:20:30.865Z,99945.25
2022-10-02T23:23:03.274Z,99949.88
2022-10-02T23:25:36.405Z,99948.77
2022-10-02T23:28:08.607Z,99947.45
2022-10-02T23:30:40.915Z,99950.50
2022-10-02T23:33:22.040Z,99949.67
2022-10-02T23:35:54.650Z,99949.59
2022-10-02T23:38:28.253Z,99951.29
2022-10-02T23:41:23.139Z,99953.64
2022-10-02T23:44:02.993Z,99952.89
2022-10-02T23:46:36.256Z,99949.55
2022-10-02T23:49:05.293Z,99948.17
2022-10-02T23:51:43.525Z,99951.23
2022-10-02T23:54:20.859Z,99952.31
2022-10-02T23:57:00.721Z,99950.17
2022-10-02T23:59:41.907Z,99953.77
